Terminal Aerodrome Forecast
Issued by NWS Wichita, KS

Home | Current Version | Previous Version | Text Only | Print | Product List | Glossary Off
Versions: 1 2 3 4 5 6 7 8 9 10 11 12 13 14 15 16 17

384
FTUS43 KICT 111131
TAFICT
TAF
KICT 111131Z 1112/1212 01008KT P6SM SKC
     FM111500 03009KT P6SM SCT009
     FM111900 07005KT P6SM SCT250
     FM112100 14004KT P6SM SCT250
     FM120700 20006KT P6SM SCT250=

USA.gov is the U.S. government's official web portal to all federal, state and local government web resources and services.